createdAt,value
2023-03-05T00:00:29.307Z,30.87
2023-03-05T00:03:15.017Z,33.30
2023-03-05T00:06:00.558Z,34.87
2023-03-05T00:08:46.257Z,34.77
2023-03-05T00:11:33.522Z,37.53
2023-03-05T00:14:18.838Z,38.07
2023-03-05T00:17:04.265Z,35.00
2023-03-05T00:19:49.769Z,36.37
2023-03-05T00:22:36.012Z,38.77
2023-03-05T00:25:21.351Z,34.23
2023-03-05T00:28:08.035Z,40.83
2023-03-05T00:30:53.705Z,39.23
2023-03-05T00:33:39.173Z,35.37
2023-03-05T00:36:25.637Z,39.90
2023-03-05T00:39:12.060Z,37.30
2023-03-05T00:41:57.437Z,38.13
2023-03-05T00:44:43.026Z,38.17
2023-03-05T00:47:28.519Z,42.63
2023-03-05T00:50:14.104Z,40.20
2023-03-05T00:52:59.686Z,39.77
2023-03-05T00:55:45.239Z,41.43
2023-03-05T00:58:30.994Z,40.40
2023-03-05T01:01:16.450Z,40.13
2023-03-05T01:04:02.121Z,38.83
2023-03-05T01:06:47.373Z,40.40
2023-03-05T01:09:32.977Z,40.63
2023-03-05T01:12:18.495Z,38.80
2023-03-05T01:15:05.435Z,42.47
2023-03-05T01:17:50.667Z,43.13
2023-03-05T01:20:36.171Z,44.87
2023-03-05T01:23:21.805Z,37.07
2023-03-05T01:26:08.618Z,45.93
2023-03-05T01:28:54.354Z,47.60
2023-03-05T01:31:39.775Z,44.37
2023-03-05T01:34:25.287Z,42.43
2023-03-05T01:37:10.805Z,41.13
2023-03-05T01:39:56.522Z,43.87
2023-03-05T01:42:49.784Z,42.47
2023-03-05T01:45:35.058Z,47.17
2023-03-05T01:48:21.047Z,44.73
2023-03-05T01:51:07.381Z,43.00
2023-03-05T01:53:55.054Z,47.97
2023-03-05T01:56:41.536Z,42.70
2023-03-05T01:59:28.088Z,46.20
2023-03-05T02:02:14.037Z,47.70
2023-03-05T02:05:10.799Z,48.83
2023-03-05T02:08:07.871Z,42.57
2023-03-05T02:10:56.503Z,55.03
2023-03-05T02:13:42.065Z,43.50
2023-03-05T02:16:35.800Z,51.80
2023-03-05T02:19:21.209Z,46.47
2023-03-05T02:22:15.103Z,42.77
2023-03-05T02:25:00.595Z,53.65
2023-03-05T02:28:16.745Z,51.97
2023-03-05T02:31:02.394Z,49.67
2023-03-05T02:33:48.399Z,51.80
2023-03-05T02:36:34.019Z,48.37
2023-03-05T02:39:19.787Z,51.47
2023-03-05T02:42:05.561Z,53.17
2023-03-05T02:44:51.178Z,46.33
2023-03-05T02:47:37.052Z,48.97
2023-03-05T02:50:23.199Z,49.67
2023-03-05T02:53:08.611Z,45.07
2023-03-05T02:55:54.046Z,50.67
2023-03-05T02:58:39.807Z,44.40
2023-03-05T03:01:28.463Z,51.50
2023-03-05T03:04:13.836Z,48.13
2023-03-05T03:06:59.567Z,51.03
2023-03-05T03:09:45.099Z,49.90
2023-03-05T03:12:30.297Z,54.03
2023-03-05T03:15:17.423Z,53.63
2023-03-05T03:18:02.649Z,55.00
2023-03-05T03:20:48.189Z,47.10
2023-03-05T03:23:34.165Z,54.97
2023-03-05T03:26:19.843Z,51.93
2023-03-05T03:29:05.164Z,50.67
2023-03-05T03:31:50.686Z,48.50
2023-03-05T03:34:36.226Z,48.27
2023-03-05T03:37:22.491Z,50.50
2023-03-05T03:40:08.691Z,46.27
2023-03-05T03:42:54.746Z,53.40
2023-03-05T03:45:44.607Z,54.80
2023-03-05T03:48:29.829Z,48.63
2023-03-05T03:51:15.110Z,50.10
2023-03-05T03:54:01.183Z,51.87
2023-03-05T03:56:47.076Z,50.77
2023-03-05T03:59:32.623Z,56.77
2023-03-05T04:02:18.333Z,51.83
2023-03-05T04:05:04.354Z,52.13
2023-03-05T04:07:50.039Z,47.27
2023-03-05T04:10:35.157Z,44.10
2023-03-05T04:13:20.641Z,55.77
2023-03-05T04:16:06.716Z,48.83
2023-03-05T04:18:52.056Z,52.73
2023-03-05T04:21:37.547Z,51.30
2023-03-05T04:24:22.868Z,54.83
2023-03-05T04:27:08.292Z,48.00
2023-03-05T04:29:53.626Z,43.03
2023-03-05T04:32:39.282Z,52.33
2023-03-05T04:35:25.415Z,46.37
2023-03-05T04:38:11.134Z,46.53
2023-03-05T04:40:56.509Z,50.57
2023-03-05T04:43:41.862Z,46.90
2023-03-05T04:46:27.515Z,43.67
2023-03-05T04:49:13.245Z,52.83
2023-03-05T04:51:58.671Z,53.53
2023-03-05T04:54:45.015Z,48.60
2023-03-05T04:57:30.460Z,55.73
2023-03-05T05:00:17.447Z,48.70
2023-03-05T05:03:03.325Z,47.80
2023-03-05T05:05:55.266Z,49.70
2023-03-05T05:08:40.346Z,43.20
2023-03-05T05:11:25.817Z,46.33
2023-03-05T05:14:11.490Z,49.53
2023-03-05T05:16:56.929Z,54.17
2023-03-05T05:19:42.356Z,44.17
2023-03-05T05:22:29.299Z,56.07
2023-03-05T05:25:14.790Z,50.57
2023-03-05T05:28:00.109Z,47.57
2023-03-05T05:30:45.468Z,47.33
2023-03-05T05:33:31.123Z,50.30
2023-03-05T05:36:19.341Z,50.57
2023-03-05T05:39:04.880Z,51.67
2023-03-05T05:41:51.823Z,44.13
2023-03-05T05:44:37.393Z,49.33
2023-03-05T05:47:22.989Z,52.17
2023-03-05T05:50:09.236Z,50.00
2023-03-05T05:52:54.511Z,48.90
2023-03-05T05:55:41.305Z,48.03
2023-03-05T05:58:27.107Z,47.63
2023-03-05T06:01:24.061Z,45.10
2023-03-05T06:04:09.305Z,49.87
2023-03-05T06:06:54.715Z,51.53
2023-03-05T06:09:40.278Z,48.57
2023-03-05T06:12:25.800Z,55.93
2023-03-05T06:15:11.329Z,54.77
2023-03-05T06:17:56.507Z,54.00
2023-03-05T06:20:42.112Z,55.23
2023-03-05T06:23:28.544Z,53.50
2023-03-05T06:26:17.162Z,58.87
2023-03-05T06:29:03.780Z,53.67
2023-03-05T06:31:49.399Z,56.97
2023-03-05T06:34:34.964Z,50.50
2023-03-05T06:37:20.250Z,50.63
2023-03-05T06:40:07.799Z,52.03
2023-03-05T06:42:53.371Z,53.77
2023-03-05T06:45:39.037Z,49.57
2023-03-05T06:48:24.462Z,51.00
2023-03-05T06:51:18.419Z,55.00
2023-03-05T06:54:13.629Z,51.97
2023-03-05T06:56:58.967Z,55.13
2023-03-05T06:59:44.366Z,52.50
2023-03-05T07:02:29.932Z,52.53
2023-03-05T07:05:15.730Z,47.53
2023-03-05T07:08:01.832Z,53.23
2023-03-05T07:10:47.444Z,51.63
2023-03-05T07:13:32.867Z,55.47
2023-03-05T07:16:24.195Z,58.13
2023-03-05T07:19:11.037Z,60.83
2023-03-05T07:21:56.719Z,48.77
2023-03-05T07:24:42.306Z,57.40
2023-03-05T07:27:27.761Z,53.53
2023-03-05T07:30:14.005Z,51.20
2023-03-05T07:32:59.298Z,54.97
2023-03-05T07:35:44.882Z,54.27
2023-03-05T07:38:31.996Z,50.07
2023-03-05T07:41:23.550Z,44.93
2023-03-05T07:44:10.337Z,52.60
2023-03-05T07:46:55.627Z,48.60
2023-03-05T07:49:41.761Z,52.77
2023-03-05T07:52:27.444Z,53.93
2023-03-05T07:55:12.944Z,44.97
2023-03-05T07:57:58.315Z,58.90
2023-03-05T08:00:43.846Z,50.87
2023-03-05T08:03:29.736Z,54.30
2023-03-05T08:06:15.371Z,52.10
2023-03-05T08:09:01.059Z,51.97
2023-03-05T08:11:46.308Z,53.53
2023-03-05T08:14:32.015Z,53.87
2023-03-05T08:17:17.956Z,57.70
2023-03-05T08:20:05.992Z,55.23
2023-03-05T08:22:51.477Z,48.23
2023-03-05T08:25:38.414Z,51.37
2023-03-05T08:28:23.868Z,56.50
2023-03-05T08:31:10.477Z,52.93
2023-03-05T08:33:57.940Z,53.87
2023-03-05T08:36:43.160Z,51.37
2023-03-05T08:39:30.270Z,49.57
2023-03-05T08:42:15.976Z,58.23
2023-03-05T08:45:01.821Z,56.43
2023-03-05T08:47:47.230Z,56.67
2023-03-05T08:50:32.717Z,52.13
2023-03-05T08:53:18.339Z,46.73
2023-03-05T08:56:04.264Z,50.53
2023-03-05T08:58:49.653Z,53.80
2023-03-05T09:01:35.465Z,55.77
2023-03-05T09:04:20.935Z,53.33
2023-03-05T09:07:06.634Z,52.00
2023-03-05T09:09:52.230Z,51.43
2023-03-05T09:12:38.049Z,46.77
2023-03-05T09:15:23.688Z,52.07
2023-03-05T09:18:09.449Z,52.13
2023-03-05T09:20:56.974Z,49.07
2023-03-05T09:23:44.012Z,45.83
2023-03-05T09:26:29.367Z,53.70
2023-03-05T09:29:14.781Z,51.43
2023-03-05T09:32:00.614Z,50.73
2023-03-05T09:34:46.034Z,46.57
2023-03-05T09:37:31.799Z,52.93
2023-03-05T09:40:19.054Z,47.73
2023-03-05T09:43:19.296Z,51.97
2023-03-05T09:46:36.506Z,50.27
2023-03-05T09:49:43.927Z,49.63
2023-03-05T09:52:46.261Z,48.40
2023-03-05T09:55:31.802Z,49.33
2023-03-05T09:58:29.481Z,50.87
2023-03-05T10:01:35.753Z,43.90
2023-03-05T10:04:45.823Z,47.60
2023-03-05T10:07:34.384Z,46.73
2023-03-05T10:10:34.570Z,42.50
2023-03-05T10:13:32.683Z,45.23
2023-03-05T10:16:31.358Z,44.30
2023-03-05T10:19:44.435Z,45.70
2023-03-05T10:22:36.605Z,49.17
2023-03-05T10:25:53.455Z,44.53
2023-03-05T10:28:42.084Z,43.33
2023-03-05T10:31:58.071Z,46.00
2023-03-05T10:35:10.535Z,45.87
2023-03-05T10:38:14.280Z,42.97
2023-03-05T10:41:12.291Z,47.43
2023-03-05T10:44:09.397Z,43.57
2023-03-05T10:46:58.693Z,42.67
2023-03-05T10:49:53.150Z,43.53
2023-03-05T10:52:46.588Z,40.25
2023-03-05T10:55:32.484Z,43.27
2023-03-05T10:58:18.028Z,44.63
2023-03-05T11:01:12.536Z,40.07
2023-03-05T11:04:01.603Z,46.72
2023-03-05T11:06:46.965Z,48.70
2023-03-05T11:09:32.904Z,44.00
2023-03-05T11:12:21.284Z,43.20
2023-03-05T11:15:25.969Z,45.00
2023-03-05T11:18:21.383Z,40.75
2023-03-05T11:21:13.516Z,43.27
2023-03-05T11:24:10.141Z,41.13
2023-03-05T11:26:57.850Z,42.92
2023-03-05T11:29:49.738Z,45.37
2023-03-05T11:32:35.300Z,43.95
2023-03-05T11:35:33.640Z,42.33
2023-03-05T11:38:20.678Z,48.47
2023-03-05T11:41:05.853Z,38.20
2023-03-05T11:43:53.787Z,45.00
2023-03-05T11:46:47.563Z,45.70
2023-03-05T11:49:39.151Z,40.60
2023-03-05T11:52:38.992Z,42.20
2023-03-05T11:55:40.489Z,38.45
2023-03-05T11:58:43.900Z,37.63
2023-03-05T12:01:33.655Z,39.88
2023-03-05T12:04:20.293Z,38.83
2023-03-05T12:07:05.853Z,42.22
2023-03-05T12:09:53.382Z,38.45
2023-03-05T12:12:44.709Z,36.03
2023-03-05T12:15:58.167Z,41.85
2023-03-05T12:19:02.929Z,36.83
2023-03-05T12:21:52.204Z,43.38
2023-03-05T12:24:39.051Z,44.67
2023-03-05T12:27:36.905Z,44.67
2023-03-05T12:30:51.852Z,42.92
2023-03-05T12:33:42.064Z,36.85
2023-03-05T12:36:35.514Z,37.28
2023-03-05T12:39:47.735Z,44.97
2023-03-05T12:42:33.009Z,41.65
2023-03-05T12:45:19.644Z,40.55
2023-03-05T12:48:10.708Z,40.10
2023-03-05T12:50:58.834Z,42.13
2023-03-05T12:53:44.416Z,39.35
2023-03-05T12:56:32.727Z,36.65
2023-03-05T12:59:22.468Z,37.28
2023-03-05T13:02:23.313Z,39.20
2023-03-05T13:05:29.152Z,37.42
2023-03-05T13:08:25.742Z,43.13
2023-03-05T13:11:21.010Z,38.20
2023-03-05T13:14:26.602Z,35.33
2023-03-05T13:17:30.712Z,35.08
2023-03-05T13:20:35.018Z,37.30
2023-03-05T13:23:28.479Z,35.20
2023-03-05T13:26:15.560Z,36.22
2023-03-05T13:29:22.005Z,34.85
2023-03-05T13:32:28.403Z,38.35
2023-03-05T13:35:14.167Z,33.08
2023-03-05T13:38:00.221Z,35.17
2023-03-05T13:40:45.946Z,34.53
2023-03-05T13:43:31.261Z,35.72
2023-03-05T13:46:31.548Z,38.45
2023-03-05T13:49:28.874Z,34.33
2023-03-05T13:52:25.357Z,41.67
2023-03-05T13:55:16.913Z,34.55
2023-03-05T13:58:03.328Z,33.83
2023-03-05T14:00:49.095Z,35.22
2023-03-05T14:03:35.446Z,34.47
2023-03-05T14:06:22.542Z,34.88
2023-03-05T14:09:30.698Z,33.88
2023-03-05T14:12:30.985Z,36.58
2023-03-05T14:15:22.021Z,35.88
2023-03-05T14:18:13.441Z,34.55
2023-03-05T14:21:08.956Z,35.13
2023-03-05T14:23:56.589Z,35.63
2023-03-05T14:26:51.853Z,34.15
2023-03-05T14:29:37.858Z,33.28
2023-03-05T14:32:36.907Z,34.08
2023-03-05T14:35:26.058Z,33.97
2023-03-05T14:38:21.637Z,34.88
2023-03-05T14:41:20.802Z,37.50
2023-03-05T14:44:12.506Z,33.15
2023-03-05T14:46:57.896Z,32.33
2023-03-05T14:49:43.391Z,34.22
2023-03-05T14:52:29.386Z,33.30
2023-03-05T14:55:18.933Z,32.45
2023-03-05T14:58:13.494Z,31.10
2023-03-05T15:00:59.032Z,32.95
2023-03-05T15:03:44.520Z,32.85
2023-03-05T15:06:38.108Z,32.45
2023-03-05T15:09:23.297Z,33.28
2023-03-05T15:12:14.922Z,29.75
2023-03-05T15:15:00.913Z,33.97
2023-03-05T15:17:48.095Z,37.10
2023-03-05T15:20:33.863Z,32.47
2023-03-05T15:23:20.195Z,31.23
2023-03-05T15:26:08.305Z,31.90
2023-03-05T15:28:53.849Z,31.45
2023-03-05T15:31:40.600Z,31.85
2023-03-05T15:34:25.908Z,30.13
2023-03-05T15:37:12.072Z,31.85
2023-03-05T15:39:57.505Z,28.73
2023-03-05T15:42:43.204Z,29.83
2023-03-05T15:45:31.416Z,32.83
2023-03-05T15:48:17.055Z,31.05
2023-03-05T15:51:06.632Z,33.08
2023-03-05T15:53:52.293Z,28.95
2023-03-05T15:56:37.874Z,32.13
2023-03-05T15:59:23.048Z,31.77
2023-03-05T16:02:08.662Z,31.83
2023-03-05T16:04:54.113Z,32.53
2023-03-05T16:07:42.857Z,29.75
2023-03-05T16:10:30.466Z,32.50
2023-03-05T16:13:18.585Z,32.60
2023-03-05T16:16:06.960Z,32.80
2023-03-05T16:18:53.528Z,32.08
2023-03-05T16:21:39.151Z,31.35
2023-03-05T16:24:24.747Z,31.45
2023-03-05T16:27:10.963Z,29.30
2023-03-05T16:29:58.028Z,28.95
2023-03-05T16:32:43.716Z,35.58
2023-03-05T16:35:30.012Z,30.13
2023-03-05T16:38:15.894Z,29.73
2023-03-05T16:41:08.156Z,28.67
2023-03-05T16:43:56.409Z,31.23
2023-03-05T16:46:43.979Z,32.05
2023-03-05T16:49:29.254Z,32.10
2023-03-05T16:52:19.467Z,29.70
2023-03-05T16:55:06.432Z,32.47
2023-03-05T16:57:51.832Z,32.13
2023-03-05T17:00:37.084Z,33.75
2023-03-05T17:03:23.024Z,29.90
2023-03-05T17:06:10.953Z,32.42
2023-03-05T17:08:56.428Z,33.53
2023-03-05T17:11:41.717Z,31.55
2023-03-05T17:14:27.570Z,29.70
2023-03-05T17:17:13.056Z,28.50
2023-03-05T17:19:59.313Z,31.45
2023-03-05T17:22:44.700Z,31.38
2023-03-05T17:25:30.588Z,29.33
2023-03-05T17:28:16.223Z,37.33
2023-03-05T17:31:01.920Z,32.65
2023-03-05T17:33:47.479Z,29.02
2023-03-05T17:36:33.098Z,26.30
2023-03-05T17:39:19.126Z,29.10
2023-03-05T17:42:04.442Z,32.80
2023-03-05T17:44:50.367Z,31.63
2023-03-05T17:47:35.885Z,32.15
2023-03-05T17:50:21.230Z,31.17
2023-03-05T17:53:06.869Z,29.30
2023-03-05T17:55:52.778Z,29.00
2023-03-05T17:58:39.022Z,29.97
2023-03-05T18:01:30.776Z,37.08
2023-03-05T18:04:17.225Z,32.00
2023-03-05T18:07:02.926Z,31.47
2023-03-05T18:09:48.100Z,33.33
2023-03-05T18:12:33.998Z,36.53
2023-03-05T18:15:21.081Z,32.13
2023-03-05T18:18:07.476Z,32.37
2023-03-05T18:20:53.223Z,33.17
2023-03-05T18:23:38.644Z,41.77
2023-03-05T18:26:24.507Z,36.05
2023-03-05T18:29:09.661Z,30.37
2023-03-05T18:31:55.242Z,31.23
2023-03-05T18:34:40.535Z,33.57
2023-03-05T18:37:26.192Z,36.83
2023-03-05T18:40:19.492Z,32.50
2023-03-05T18:43:05.637Z,35.43
2023-03-05T18:45:53.204Z,35.87
2023-03-05T18:48:38.356Z,36.80
2023-03-05T18:51:26.447Z,36.63
2023-03-05T18:54:12.069Z,34.27
2023-03-05T18:56:57.737Z,38.13
2023-03-05T18:59:43.336Z,36.87
2023-03-05T19:02:28.946Z,41.03
2023-03-05T19:05:15.219Z,34.97
2023-03-05T19:08:01.929Z,32.80
2023-03-05T19:10:48.084Z,34.90
2023-03-05T19:13:42.992Z,32.57
2023-03-05T19:16:33.887Z,36.17
2023-03-05T19:19:22.596Z,32.37
2023-03-05T19:22:08.504Z,33.90
2023-03-05T19:24:54.421Z,30.27
2023-03-05T19:27:39.909Z,38.57
2023-03-05T19:30:25.405Z,36.70
2023-03-05T19:33:10.812Z,35.90
2023-03-05T19:35:56.544Z,34.50
2023-03-05T19:38:43.084Z,33.37
2023-03-05T19:41:29.477Z,36.63
2023-03-05T19:44:15.168Z,33.50
2023-03-05T19:47:01.305Z,33.00
2023-03-05T19:49:46.773Z,34.27
2023-03-05T19:52:32.522Z,37.63
2023-03-05T19:55:17.839Z,36.83
2023-03-05T19:58:03.257Z,35.30
2023-03-05T20:00:49.077Z,33.17
2023-03-05T20:03:34.378Z,37.37
2023-03-05T20:06:20.828Z,35.97
2023-03-05T20:09:08.062Z,34.77
2023-03-05T20:11:53.428Z,38.47
2023-03-05T20:14:39.130Z,35.43
2023-03-05T20:17:24.704Z,36.80
2023-03-05T20:20:15.355Z,37.37
2023-03-05T20:23:00.959Z,41.20
2023-03-05T20:25:46.487Z,41.60
2023-03-05T20:28:32.989Z,30.63
2023-03-05T20:31:20.760Z,35.40
2023-03-05T20:34:08.681Z,38.97
2023-03-05T20:36:54.272Z,36.13
2023-03-05T20:39:39.467Z,39.53
2023-03-05T20:42:24.833Z,38.90
2023-03-05T20:45:10.858Z,39.73
2023-03-05T20:47:56.406Z,39.50
2023-03-05T20:50:41.772Z,40.67
2023-03-05T20:53:27.386Z,33.63
2023-03-05T20:56:12.936Z,42.17
2023-03-05T20:59:04.700Z,43.57
2023-03-05T21:01:50.390Z,37.17
2023-03-05T21:04:35.653Z,37.27
2023-03-05T21:07:21.221Z,39.43
2023-03-05T21:10:07.114Z,40.40
2023-03-05T21:12:53.903Z,36.63
2023-03-05T21:15:40.816Z,39.50
2023-03-05T21:18:28.441Z,32.70
2023-03-05T21:21:13.765Z,33.20
2023-03-05T21:23:59.025Z,32.63
2023-03-05T21:26:44.516Z,31.70
2023-03-05T21:29:29.963Z,32.73
2023-03-05T21:32:15.998Z,35.63
2023-03-05T21:35:01.477Z,30.40
2023-03-05T21:37:47.596Z,30.60
2023-03-05T21:40:35.570Z,34.77
2023-03-05T21:43:23.462Z,36.27
2023-03-05T21:46:10.900Z,32.40
2023-03-05T21:48:56.520Z,32.40
2023-03-05T21:52:12.350Z,29.30
2023-03-05T21:54:57.689Z,38.07
2023-03-05T21:57:43.392Z,37.13
2023-03-05T22:00:29.053Z,36.33
2023-03-05T22:03:14.401Z,34.50
2023-03-05T22:05:59.931Z,38.23
2023-03-05T22:08:45.988Z,37.27
2023-03-05T22:11:31.122Z,39.30
2023-03-05T22:14:17.955Z,36.70
2023-03-05T22:17:03.782Z,39.17
2023-03-05T22:19:49.017Z,35.37
2023-03-05T22:22:36.508Z,30.97
2023-03-05T22:25:21.741Z,37.00
2023-03-05T22:28:10.604Z,41.97
2023-03-05T22:30:56.271Z,42.10
2023-03-05T22:33:41.427Z,37.53
2023-03-05T22:36:27.046Z,37.03
2023-03-05T22:39:12.652Z,37.03
2023-03-05T22:41:58.148Z,31.07
2023-03-05T22:44:43.906Z,36.63
2023-03-05T22:47:29.969Z,36.47
2023-03-05T22:50:16.517Z,37.00
2023-03-05T22:53:02.167Z,41.13
2023-03-05T22:55:48.274Z,40.13
2023-03-05T22:58:33.869Z,39.07
2023-03-05T23:01:22.241Z,35.37
2023-03-05T23:04:50.040Z,36.83
2023-03-05T23:07:37.317Z,37.20
2023-03-05T23:10:27.207Z,40.27
2023-03-05T23:13:12.615Z,38.00
2023-03-05T23:15:58.010Z,35.47
2023-03-05T23:18:43.461Z,36.37
2023-03-05T23:21:28.695Z,36.77
2023-03-05T23:24:14.260Z,41.30
2023-03-05T23:27:00.526Z,36.07
2023-03-05T23:30:21.691Z,39.00
2023-03-05T23:33:13.463Z,36.30
2023-03-05T23:36:00.276Z,34.60
2023-03-05T23:38:46.085Z,36.07
2023-03-05T23:41:31.691Z,35.47
2023-03-05T23:44:17.148Z,36.63
2023-03-05T23:47:02.682Z,36.40
2023-03-05T23:49:48.392Z,34.63
2023-03-05T23:52:34.212Z,34.30
2023-03-05T23:55:32.505Z,37.20
2023-03-05T23:58:20.337Z,39.17
